Time;durP1;ratioP1;P1;durP2;ratioP2;P2;SDS_P1;SDS_P2;PMS_P1;PMS_P2;Temp;Humidity;BMP_temperature;BMP_pressure;BME280_temperature;BME280_humidity;BME280_pressure;Samples;Min_cycle;Max_cycle;Signal;HPM_P1;HPM_P2
2022/06/24 00:00:14;;;;;;;6.32;2.47;;;25.50;36.60;;;;;;5035888;28;20372;-69
2022/06/24 00:02:41;;;;;;;4.15;2.30;;;25.50;36.60;;;;;;5036608;28;20033;-70
2022/06/24 00:05:10;;;;;;;4.70;2.22;;;25.50;36.70;;;;;;5036472;28;20156;-70
2022/06/24 00:07:53;;;;;;;3.88;2.38;;;25.50;36.70;;;;;;5035227;28;20364;-68
2022/06/24 00:10:21;;;;;;;4.82;2.08;;;25.40;36.70;;;;;;5035875;28;20017;-68
2022/06/24 00:12:48;;;;;;;2.83;1.92;;;25.40;36.80;;;;;;5036029;28;20095;-71
2022/06/24 00:15:15;;;;;;;2.90;1.60;;;25.30;37.00;;;;;;5036239;28;20478;-70
2022/06/24 00:17:41;;;;;;;4.55;2.28;;;25.30;37.10;;;;;;5036499;28;20057;-68
2022/06/24 00:20:17;;;;;;;2.65;1.75;;;25.30;37.20;;;;;;5036194;28;20052;-69
2022/06/24 00:22:49;;;;;;;6.75;2.15;;;25.20;37.20;;;;;;5034892;28;20165;-72
2022/06/24 00:25:20;;;;;;;4.93;2.25;;;25.20;37.30;;;;;;5034849;28;20128;-70
2022/06/24 00:28:07;;;;;;;4.15;2.13;;;25.20;37.90;;;;;;5036023;28;20021;-70
2022/06/24 00:30:45;;;;;;;2.70;1.63;;;25.20;37.20;;;;;;5023620;28;20022;-71
2022/06/24 00:33:19;;;;;;;2.38;1.65;;;25.10;37.20;;;;;;5028949;28;20356;-69
2022/06/24 00:35:50;;;;;;;1.83;1.65;;;25.10;37.20;;;;;;5027146;28;20095;-69
2022/06/24 00:38:35;;;;;;;2.65;1.90;;;25.10;37.30;;;;;;5035548;28;20020;-70
2022/06/24 00:41:10;;;;;;;2.22;1.75;;;25.00;37.30;;;;;;5030213;28;20025;-72
2022/06/24 00:43:43;;;;;;;3.78;2.15;;;25.00;37.50;;;;;;5028517;28;20052;-73
2022/06/24 00:46:14;;;;;;;5.07;2.20;;;25.00;37.60;;;;;;5032060;28;20053;-70
2022/06/24 00:48:46;;;;;;;2.97;1.90;;;25.00;37.60;;;;;;5032603;28;20489;-72
2022/06/24 00:51:12;;;;;;;2.55;1.95;;;24.90;37.50;;;;;;5034454;28;20429;-72
2022/06/24 00:53:42;;;;;;;3.47;1.90;;;24.90;37.60;;;;;;5035098;28;20033;-70
2022/06/24 00:56:11;;;;;;;2.08;1.60;;;24.90;37.50;;;;;;5023280;28;20514;-70
2022/06/24 00:58:37;;;;;;;2.05;1.73;;;24.90;37.50;;;;;;5033900;28;20036;-71
2022/06/24 01:01:03;;;;;;;8.13;1.92;;;24.90;37.50;;;;;;5029462;28;20014;-69
2022/06/24 01:03:42;;;;;;;2.40;1.88;;;24.80;37.50;;;;;;5033743;28;20033;-71
2022/06/24 01:06:08;;;;;;;2.67;1.60;;;24.80;37.60;;;;;;5031007;28;20033;-71
2022/06/24 01:08:34;;;;;;;2.50;1.60;;;24.80;37.60;;;;;;5033407;28;20391;-69
2022/06/24 01:11:01;;;;;;;3.15;1.80;;;24.80;37.60;;;;;;5034126;28;20033;-72
2022/06/24 01:13:27;;;;;;;2.97;1.60;;;24.80;37.80;;;;;;5033560;28;20037;-72
2022/06/24 01:15:54;;;;;;;2.88;1.80;;;24.70;38.00;;;;;;5022887;28;20018;-67
2022/06/24 01:18:21;;;;;;;2.13;1.55;;;24.70;38.00;;;;;;5015127;28;20022;-67
2022/06/24 01:20:47;;;;;;;2.40;1.65;;;24.70;37.80;;;;;;5023423;28;20017;-71
2022/06/24 01:23:21;;;;;;;3.28;1.90;;;24.60;37.80;;;;;;5014938;28;20519;-67
2022/06/24 01:25:47;;;;;;;4.75;1.65;;;24.60;37.90;;;;;;5023580;28;20048;-67
2022/06/24 01:28:13;;;;;;;2.53;1.65;;;24.60;38.10;;;;;;5033677;28;20677;-74
2022/06/24 01:30:39;;;;;;;1.98;1.77;;;24.60;38.00;;;;;;5033199;28;20033;-70
2022/06/24 01:33:06;;;;;;;6.35;1.95;;;24.50;38.00;;;;;;5033204;28;20037;-72
2022/06/24 01:35:32;;;;;;;3.92;1.95;;;24.50;38.30;;;;;;5033587;28;20025;-70
2022/06/24 01:37:58;;;;;;;3.08;1.80;;;24.50;38.20;;;;;;5032112;28;20048;-71
2022/06/24 01:40:24;;;;;;;2.88;1.90;;;24.50;38.20;;;;;;5034205;28;20424;-69
2022/06/24 01:42:49;;;;;;;2.10;1.50;;;24.50;38.30;;;;;;5034198;28;20331;-71
2022/06/24 01:45:15;;;;;;;4.80;1.60;;;24.50;38.30;;;;;;5033157;28;20056;-69
2022/06/24 01:47:41;;;;;;;7.53;1.63;;;24.50;38.40;;;;;;5034077;28;20434;-72
2022/06/24 01:50:07;;;;;;;2.10;1.80;;;24.50;38.50;;;;;;5032607;28;20032;-69
2022/06/24 01:52:33;;;;;;;7.15;1.52;;;24.40;38.60;;;;;;5033419;28;20034;-73
2022/06/24 01:54:59;;;;;;;1.92;1.50;;;24.40;38.60;;;;;;5033835;28;20026;-71
2022/06/24 01:57:25;;;;;;;2.55;1.70;;;24.40;38.80;;;;;;5033148;28;20029;-74
2022/06/24 01:59:51;;;;;;;1.88;1.50;;;24.40;39.00;;;;;;5033827;28;20529;-71
2022/06/24 02:02:17;;;;;;;2.08;1.75;;;24.30;39.00;;;;;;5033725;28;20029;-72
2022/06/24 02:04:47;;;;;;;2.30;1.88;;;24.30;39.10;;;;;;5033407;28;20394;-70
2022/06/24 02:07:13;;;;;;;3.10;1.92;;;24.30;39.10;;;;;;5033928;28;20021;-71
2022/06/24 02:15:08;;;;;;;4.75;1.40;;;24.20;39.40;;;;;;5033637;28;20028;-69
2022/06/24 02:17:34;;;;;;;2.10;1.90;;;24.10;39.60;;;;;;5033454;28;20021;-71
2022/06/24 02:20:00;;;;;;;2.10;1.70;;;24.10;39.80;;;;;;5032248;28;20021;-74
2022/06/24 02:22:26;;;;;;;2.58;1.60;;;24.10;39.80;;;;;;5031553;28;20029;-68
2022/06/24 02:24:52;;;;;;;3.03;1.55;;;24.00;39.80;;;;;;5033448;28;20022;-72
2022/06/24 02:27:18;;;;;;;5.50;1.40;;;24.00;39.90;;;;;;5030333;28;20032;-71
2022/06/24 02:29:44;;;;;;;2.72;1.80;;;24.00;40.10;;;;;;5033237;28;20450;-70
2022/06/24 02:32:10;;;;;;;2.50;1.60;;;24.00;40.20;;;;;;5031968;28;20025;-70
2022/06/24 02:34:36;;;;;;;3.55;1.88;;;23.90;40.30;;;;;;5032267;28;20029;-68
2022/06/24 02:37:02;;;;;;;3.08;1.95;;;23.90;40.50;;;;;;5033061;28;20448;-72
2022/06/24 02:39:28;;;;;;;4.10;1.88;;;23.90;40.50;;;;;;5031675;28;20116;-70
2022/06/24 02:41:53;;;;;;;3.22;2.13;;;23.90;40.70;;;;;;5015704;28;20079;-72
2022/06/24 02:44:19;;;;;;;2.33;1.73;;;23.90;40.90;;;;;;5013065;28;20056;-69
2022/06/24 02:46:45;;;;;;;4.03;2.15;;;23.90;41.00;;;;;;5025013;28;20030;-69
2022/06/24 02:49:11;;;;;;;3.47;2.20;;;24.00;41.20;;;;;;5033003;28;20033;-70
2022/06/24 02:51:36;;;;;;;3.85;2.45;;;24.00;41.10;;;;;;5033268;28;20064;-73
2022/06/24 02:54:02;;;;;;;3.33;2.05;;;24.00;41.20;;;;;;5028121;28;20036;-68
2022/06/24 02:56:28;;;;;;;6.15;2.58;;;24.00;41.00;;;;;;5013106;28;20069;-70
2022/06/24 02:58:54;;;;;;;4.32;2.45;;;24.00;41.00;;;;;;5020907;28;20021;-73
2022/06/24 03:01:20;;;;;;;3.05;2.50;;;24.10;41.30;;;;;;5030910;28;20096;-70
2022/06/24 03:03:45;;;;;;;4.70;2.20;;;24.00;41.70;;;;;;5032029;28;20029;-69
2022/06/24 03:06:11;;;;;;;3.35;2.40;;;24.00;42.70;;;;;;5030852;28;20395;-72
2022/06/24 03:08:37;;;;;;;7.22;2.70;;;24.00;42.80;;;;;;5032156;28;20025;-70
2022/06/24 03:11:03;;;;;;;4.95;2.88;;;24.00;42.70;;;;;;5030820;28;20040;-70
2022/06/24 03:13:29;;;;;;;4.57;2.63;;;24.00;43.10;;;;;;5032631;28;20064;-70
2022/06/24 03:15:55;;;;;;;10.25;2.85;;;24.00;43.00;;;;;;5032661;28;20017;-72
2022/06/24 03:18:21;;;;;;;5.60;2.45;;;24.00;43.20;;;;;;5033160;28;20041;-71
2022/06/24 03:20:47;;;;;;;3.40;2.50;;;24.00;43.40;;;;;;5018539;28;20538;-73
2022/06/24 03:23:16;;;;;;;5.35;2.90;;;24.00;43.10;;;;;;5019447;28;20026;-70
2022/06/24 03:25:43;;;;;;;3.22;2.38;;;24.00;43.30;;;;;;5032069;28;20147;-72
2022/06/24 03:28:08;;;;;;;3.78;2.65;;;23.90;43.50;;;;;;5032371;28;20025;-70
2022/06/24 03:30:34;;;;;;;2.50;1.95;;;24.00;43.40;;;;;;5032284;28;20032;-74
2022/06/24 03:33:01;;;;;;;2.95;2.05;;;24.00;43.30;;;;;;5030933;28;20399;-70
2022/06/24 03:35:27;;;;;;;5.40;2.30;;;24.00;43.40;;;;;;5031519;28;20029;-69
2022/06/24 03:37:53;;;;;;;2.70;2.45;;;24.00;43.50;;;;;;5030969;28;20018;-67
2022/06/24 03:40:19;;;;;;;2.58;2.17;;;24.00;43.50;;;;;;5030271;28;20534;-70
2022/06/24 03:42:45;;;;;;;3.50;2.28;;;24.10;43.40;;;;;;5032171;28;20478;-71
2022/06/24 03:45:11;;;;;;;8.85;2.90;;;24.10;43.60;;;;;;5028411;28;20042;-74
2022/06/24 03:47:37;;;;;;;3.72;2.38;;;24.20;43.70;;;;;;5028581;28;20032;-73
2022/06/24 03:50:03;;;;;;;12.93;2.92;;;24.20;43.60;;;;;;5032196;28;20017;-70
2022/06/24 03:52:28;;;;;;;6.88;2.85;;;24.20;44.10;;;;;;5031610;28;20028;-73
2022/06/24 03:54:54;;;;;;;4.47;2.67;;;24.30;43.80;;;;;;5031994;28;20025;-72
2022/06/24 03:57:20;;;;;;;4.03;2.30;;;24.40;43.90;;;;;;5031188;28;20340;-68
2022/06/24 03:59:46;;;;;;;2.97;2.47;;;24.50;44.00;;;;;;5031435;28;20021;-73
2022/06/24 04:02:12;;;;;;;7.00;3.45;;;24.50;44.00;;;;;;5029630;28;20134;-71
2022/06/24 04:04:38;;;;;;;6.90;2.95;;;24.60;44.20;;;;;;5031723;28;20098;-69
2022/06/24 04:07:04;;;;;;;4.43;2.72;;;24.70;44.20;;;;;;5024660;28;20064;-70
2022/06/24 04:09:30;;;;;;;5.20;2.67;;;24.80;44.50;;;;;;5010884;28;20480;-71
2022/06/24 04:11:55;;;;;;;13.40;2.80;;;24.90;44.30;;;;;;5029277;28;20032;-73
2022/06/24 04:17:06;;;;;;;4.72;2.35;;;25.00;44.00;;;;;;5032019;28;20106;-73
2022/06/24 04:19:35;;;;;;;5.18;2.55;;;25.20;43.80;;;;;;5030609;28;20487;-72
2022/06/24 04:22:01;;;;;;;9.07;2.50;;;25.20;43.80;;;;;;5031928;28;20029;-70
2022/06/24 04:24:27;;;;;;;5.43;2.35;;;25.40;43.60;;;;;;5031890;28;20391;-71
2022/06/24 04:26:53;;;;;;;3.70;2.50;;;25.50;43.60;;;;;;5030968;28;20040;-67
2022/06/24 04:29:19;;;;;;;4.82;2.78;;;25.70;43.80;;;;;;5031566;28;20029;-70
2022/06/24 04:31:44;;;;;;;5.45;2.67;;;25.80;43.50;;;;;;5029921;28;20029;-72
2022/06/24 04:34:10;;;;;;;5.43;2.50;;;25.90;43.10;;;;;;5034392;28;20021;-73
2022/06/24 04:36:37;;;;;;;7.72;2.38;;;26.00;43.00;;;;;;5034247;28;20052;-70
2022/06/24 04:39:02;;;;;;;4.03;2.13;;;26.00;42.70;;;;;;5034824;28;20026;-71
2022/06/24 04:41:29;;;;;;;14.25;2.65;;;26.10;42.60;;;;;;5034964;28;20032;-73
2022/06/24 04:43:54;;;;;;;3.70;1.85;;;26.10;42.30;;;;;;5034856;28;20109;-71
2022/06/24 04:46:21;;;;;;;3.47;3.17;;;26.10;42.20;;;;;;5035282;28;20451;-70
2022/06/24 04:48:46;;;;;;;4.45;2.30;;;26.10;42.00;;;;;;5034493;28;20030;-74
2022/06/24 04:51:12;;;;;;;6.28;2.80;;;26.00;41.90;;;;;;5018430;28;20040;-72
2022/06/24 04:53:38;;;;;;;3.05;2.10;;;26.00;42.00;;;;;;5015426;28;20029;-69
2022/06/24 04:56:04;;;;;;;3.58;2.63;;;26.00;42.00;;;;;;5015389;28;20026;-67
2022/06/24 04:58:30;;;;;;;9.13;2.90;;;25.90;42.00;;;;;;5013963;28;20054;-70
2022/06/24 05:00:56;;;;;;;5.55;2.53;;;26.00;42.50;;;;;;5030398;28;20483;-67
2022/06/24 05:03:22;;;;;;;7.47;3.20;;;25.90;42.90;;;;;;5035060;28;20104;-70
2022/06/24 05:05:48;;;;;;;3.90;2.90;;;25.90;43.40;;;;;;5034324;28;20037;-73
2022/06/24 05:08:14;;;;;;;2.67;2.20;;;25.80;43.50;;;;;;5034573;28;20379;-74
2022/06/24 05:10:42;;;;;;;3.90;2.63;;;25.80;43.50;;;;;;5035038;28;20025;-71
2022/06/24 05:13:09;;;;;;;6.18;2.63;;;25.80;43.90;;;;;;5033416;28;20032;-67
2022/06/24 05:15:35;;;;;;;5.55;2.35;;;25.80;43.70;;;;;;5034393;28;20463;-71
2022/06/24 05:18:02;;;;;;;4.30;2.65;;;25.80;43.80;;;;;;5033993;28;20040;-68
2022/06/24 05:20:28;;;;;;;3.22;2.63;;;25.80;44.10;;;;;;5032167;28;20104;-71
2022/06/24 05:22:54;;;;;;;3.53;2.53;;;25.70;44.10;;;;;;5033527;28;20494;-72
2022/06/24 05:25:20;;;;;;;3.95;2.90;;;25.80;44.30;;;;;;5033229;28;20033;-71
2022/06/24 05:27:47;;;;;;;4.05;2.53;;;25.80;44.30;;;;;;5033816;28;20096;-69
2022/06/24 05:30:13;;;;;;;6.85;3.03;;;25.80;44.50;;;;;;5032992;28;20034;-73
2022/06/24 05:32:39;;;;;;;4.35;3.00;;;25.90;44.90;;;;;;5033101;28;20434;-67
2022/06/24 05:35:06;;;;;;;5.32;2.90;;;25.90;45.60;;;;;;5034456;28;20028;-69
2022/06/24 05:37:33;;;;;;;5.47;2.90;;;26.00;45.60;;;;;;5032040;28;20817;-72
2022/06/24 05:39:59;;;;;;;7.32;3.00;;;26.00;45.40;;;;;;5022138;28;20025;-66
2022/06/24 05:42:25;;;;;;;3.80;2.60;;;26.10;45.80;;;;;;5033535;28;20029;-73
2022/06/24 05:44:51;;;;;;;6.60;2.78;;;26.20;45.80;;;;;;5029770;28;20108;-68
2022/06/24 05:47:17;;;;;;;6.50;2.72;;;26.30;46.20;;;;;;5026179;28;20029;-70
2022/06/24 05:49:43;;;;;;;6.32;2.75;;;26.40;46.70;;;;;;5013293;28;20022;-70
2022/06/24 05:52:08;;;;;;;5.03;2.65;;;26.50;46.70;;;;;;5018523;28;20139;-70
2022/06/24 05:57:18;;;;;;;8.02;2.90;;;26.70;46.50;;;;;;5026461;28;20476;-70
2022/06/24 05:59:44;;;;;;;5.38;2.80;;;26.80;46.70;;;;;;5031204;28;20018;-68
2022/06/24 06:02:10;;;;;;;8.32;3.08;;;26.80;46.50;;;;;;5014715;28;20030;-73
2022/06/24 06:04:36;;;;;;;6.13;2.60;;;26.90;46.90;;;;;;5012832;28;20031;-71
2022/06/24 06:07:02;;;;;;;4.32;2.88;;;26.90;46.80;;;;;;5025335;28;20033;-71
2022/06/24 06:09:28;;;;;;;3.30;2.45;;;27.00;47.00;;;;;;5033828;28;20538;-68
2022/06/24 06:11:54;;;;;;;5.25;2.38;;;27.00;46.90;;;;;;5031825;28;20399;-70
2022/06/24 06:14:20;;;;;;;5.90;2.75;;;27.10;46.60;;;;;;5033632;28;20025;-71
2022/06/24 06:16:47;;;;;;;6.05;2.70;;;27.10;47.00;;;;;;5029776;28;20183;-70
2022/06/24 06:19:13;;;;;;;7.43;2.63;;;27.10;46.90;;;;;;5028218;28;20158;-71
2022/06/24 06:21:39;;;;;;;8.52;2.40;;;27.20;46.80;;;;;;5025432;28;20482;-73
2022/06/24 06:24:05;;;;;;;5.03;2.65;;;27.20;46.80;;;;;;5012548;28;20026;-71
2022/06/24 06:26:31;;;;;;;5.38;2.83;;;27.20;47.10;;;;;;5015203;28;20334;-71
2022/06/24 06:28:57;;;;;;;4.35;2.63;;;27.20;47.10;;;;;;5013761;28;20486;-70
2022/06/24 06:31:23;;;;;;;9.20;3.20;;;27.30;47.00;;;;;;5023516;28;20026;-70
2022/06/24 06:33:48;;;;;;;5.40;2.75;;;27.30;47.10;;;;;;5031492;28;20541;-70
2022/06/24 06:36:15;;;;;;;5.55;2.90;;;27.40;47.10;;;;;;5033388;28;20030;-67
2022/06/24 06:38:42;;;;;;;6.07;2.50;;;27.40;47.20;;;;;;5032144;28;20025;-71
2022/06/24 06:41:07;;;;;;;6.97;2.60;;;27.50;47.20;;;;;;5030827;28;20029;-73
2022/06/24 06:43:33;;;;;;;3.78;2.47;;;27.60;47.10;;;;;;5033276;28;20025;-71
2022/06/24 06:45:59;;;;;;;5.25;2.13;;;27.70;47.10;;;;;;5033202;28;20125;-71
2022/06/24 06:48:26;;;;;;;6.10;2.50;;;27.80;47.10;;;;;;5032509;28;20104;-71
2022/06/24 06:50:56;;;;;;;10.35;2.55;;;27.90;46.90;;;;;;5030311;28;20087;-67
2022/06/24 06:53:23;;;;;;;3.97;2.25;;;28.10;46.70;;;;;;5030941;28;20049;-70
2022/06/24 06:55:49;;;;;;;10.32;2.55;;;28.20;46.40;;;;;;5032753;28;20475;-67
2022/06/24 06:58:16;;;;;;;4.45;2.08;;;28.40;46.40;;;;;;5031671;28;20124;-72
2022/06/24 07:00:43;;;;;;;5.05;2.35;;;28.50;46.10;;;;;;5031611;28;20044;-68
2022/06/24 07:03:08;;;;;;;4.55;1.80;;;28.50;46.00;;;;;;5032855;28;20017;-72
2022/06/24 07:05:34;;;;;;;5.05;2.17;;;28.50;46.00;;;;;;5032833;28;20357;-71
2022/06/24 07:08:00;;;;;;;5.20;2.20;;;28.60;46.00;;;;;;5032527;28;20022;-70
2022/06/24 07:10:26;;;;;;;3.83;1.98;;;28.70;45.90;;;;;;5032900;28;20037;-71
2022/06/24 07:12:51;;;;;;;7.93;2.58;;;28.80;45.70;;;;;;5032744;28;20071;-73
2022/06/24 07:15:17;;;;;;;4.05;1.88;;;28.80;45.50;;;;;;5031327;28;20028;-74
2022/06/24 07:17:43;;;;;;;9.68;2.25;;;28.80;45.30;;;;;;5012883;28;20476;-72
2022/06/24 07:20:10;;;;;;;4.70;2.25;;;28.90;45.40;;;;;;5012707;28;20054;-67
2022/06/24 07:22:35;;;;;;;3.60;2.20;;;28.90;45.20;;;;;;5012786;28;20022;-70
2022/06/24 07:25:01;;;;;;;6.95;2.13;;;28.90;45.10;;;;;;5012901;28;20383;-69
2022/06/24 07:27:27;;;;;;;6.78;2.70;;;29.00;45.10;;;;;;5012892;28;20026;-72
2022/06/24 07:29:53;;;;;;;9.38;2.20;;;29.00;45.20;;;;;;5012841;28;20033;-68
2022/06/24 07:32:19;;;;;;;5.53;1.95;;;29.00;45.00;;;;;;5012790;28;20357;-72
2022/06/24 07:34:45;;;;;;;3.60;2.15;;;28.90;45.00;;;;;;5012503;28;20139;-71
2022/06/24 07:37:11;;;;;;;8.75;2.53;;;28.90;45.10;;;;;;5012705;28;20053;-70
2022/06/24 07:39:36;;;;;;;5.53;2.15;;;28.90;45.10;;;;;;5012736;28;20422;-72
2022/06/24 07:42:03;;;;;;;6.85;2.50;;;28.90;45.20;;;;;;5014103;28;20021;-72
2022/06/24 07:44:29;;;;;;;5.30;2.45;;;28.90;45.30;;;;;;5031411;28;20041;-70
2022/06/24 07:46:54;;;;;;;4.82;2.33;;;28.90;45.30;;;;;;5032389;28;20034;-69
2022/06/24 07:49:20;;;;;;;3.38;2.10;;;28.90;45.20;;;;;;5030956;28;20044;-70
2022/06/24 07:51:46;;;;;;;7.78;2.65;;;28.90;45.40;;;;;;5030702;28;20029;-73
2022/06/24 07:54:12;;;;;;;6.40;2.20;;;29.00;45.40;;;;;;5032274;28;20048;-72
2022/06/24 07:56:57;;;;;;;6.45;2.17;;;29.10;45.30;;;;;;5032307;28;20545;-69
2022/06/24 07:59:32;;;;;;;4.30;2.22;;;29.20;45.60;;;;;;5032447;28;20096;-71
2022/06/24 08:01:59;;;;;;;6.85;2.08;;;29.30;45.60;;;;;;5032430;28;20052;-70
2022/06/24 08:04:27;;;;;;;5.22;2.58;;;29.30;45.20;;;;;;5032145;28;20022;-72
2022/06/24 08:06:53;;;;;;;6.30;2.28;;;29.40;45.20;;;;;;5031785;28;20032;-73
2022/06/24 08:09:21;;;;;;;4.80;2.10;;;29.50;45.00;;;;;;5033965;28;20418;-74
2022/06/24 08:11:47;;;;;;;3.83;2.00;;;29.60;44.90;;;;;;5035998;28;20104;-71
2022/06/24 08:14:14;;;;;;;7.45;2.10;;;29.70;44.80;;;;;;5035928;28;20036;-73
2022/06/24 08:16:41;;;;;;;9.75;2.42;;;29.80;44.50;;;;;;5032366;28;20028;-73
2022/06/24 08:19:08;;;;;;;6.63;2.38;;;30.00;44.20;;;;;;5016224;28;20018;-73
2022/06/24 08:21:34;;;;;;;7.93;2.50;;;30.10;43.80;;;;;;5016114;28;20117;-73
2022/06/24 08:24:00;;;;;;;8.88;1.90;;;30.20;43.50;;;;;;5016117;28;20061;-72
2022/06/24 08:26:26;;;;;;;4.53;2.03;;;30.30;43.30;;;;;;5020882;28;20409;-72
2022/06/24 08:28:52;;;;;;;2.58;1.83;;;30.40;43.00;;;;;;5035902;28;20035;-71
2022/06/24 08:31:18;;;;;;;5.13;2.00;;;30.60;42.90;;;;;;5035862;28;20030;-71
2022/06/24 08:33:44;;;;;;;4.70;2.30;;;30.70;42.80;;;;;;5034484;28;20437;-72
2022/06/24 08:36:10;;;;;;;3.58;1.77;;;30.80;42.10;;;;;;5035798;28;20025;-75
2022/06/24 08:38:36;;;;;;;8.80;1.75;;;30.90;42.20;;;;;;5035647;28;20026;-68
2022/06/24 08:41:02;;;;;;;9.90;2.22;;;31.00;42.00;;;;;;5035677;28;20037;-73
2022/06/24 08:43:33;;;;;;;8.13;2.45;;;31.00;41.90;;;;;;5035664;28;20033;-70
2022/06/24 08:46:01;;;;;;;4.05;1.85;;;31.00;41.20;;;;;;5034307;28;20045;-71
2022/06/24 08:48:28;;;;;;;5.63;1.67;;;31.10;41.30;;;;;;5033767;28;20029;-68
2022/06/24 08:50:57;;;;;;;4.68;2.17;;;31.10;41.20;;;;;;5030897;28;20100;-71
2022/06/24 08:53:26;;;;;;;7.30;2.65;;;31.00;41.00;;;;;;5014461;28;20053;-70
2022/06/24 08:55:52;;;;;;;3.67;1.40;;;31.00;41.10;;;;;;5032673;28;20014;-70
2022/06/24 08:58:19;;;;;;;3.80;1.63;;;31.00;41.20;;;;;;5034153;28;20039;-70
2022/06/24 09:00:45;;;;;;;9.60;1.60;;;31.10;41.10;;;;;;5034039;28;20033;-72
2022/06/24 09:03:12;;;;;;;3.75;1.50;;;31.10;41.00;;;;;;5033935;28;20025;-72
2022/06/24 09:05:38;;;;;;;4.72;1.80;;;31.20;40.90;;;;;;5033991;28;20053;-72
2022/06/24 09:08:08;;;;;;;3.03;1.67;;;31.30;40.80;;;;;;5033928;28;20525;-72
2022/06/24 09:10:35;;;;;;;5.82;1.70;;;31.50;40.90;;;;;;5032752;28;20429;-70
2022/06/24 09:13:01;;;;;;;3.85;1.30;;;31.60;40.50;;;;;;5033721;28;20021;-72
2022/06/24 09:15:28;;;;;;;4.28;1.88;;;31.70;40.40;;;;;;5033691;28;20025;-70
2022/06/24 09:17:54;;;;;;;4.55;1.60;;;31.90;40.20;;;;;;5032417;28;20021;-74
2022/06/24 09:20:22;;;;;;;6.20;1.98;;;32.00;40.00;;;;;;5031924;28;20029;-71
2022/06/24 09:22:48;;;;;;;4.55;1.50;;;32.00;39.50;;;;;;5033412;28;20020;-70
2022/06/24 09:25:14;;;;;;;4.63;1.52;;;32.20;39.50;;;;;;5033445;28;20427;-70
2022/06/24 09:27:47;;;;;;;4.18;1.70;;;32.30;39.40;;;;;;5033382;28;20055;-73
2022/06/24 09:30:15;;;;;;;5.07;1.70;;;32.30;39.10;;;;;;5033445;28;20069;-70
2022/06/24 09:32:52;;;;;;;6.85;2.13;;;32.30;39.00;;;;;;5032357;28;20033;-70
2022/06/24 09:35:19;;;;;;;6.30;1.65;;;32.40;38.70;;;;;;5013678;28;20383;-71
2022/06/24 09:37:47;;;;;;;3.50;1.80;;;32.40;38.70;;;;;;5013408;28;20018;-72
2022/06/24 09:40:26;;;;;;;3.03;1.45;;;32.40;39.50;;;;;;5012123;28;20049;-70
2022/06/24 09:43:06;;;;;;;3.88;1.60;;;32.40;38.80;;;;;;5013513;28;20101;-70
2022/06/24 09:45:46;;;;;;;6.10;1.30;;;32.40;39.40;;;;;;4971538;28;1224290;-70
2022/06/24 09:48:28;;;;;;;3.50;1.80;;;32.50;38.90;;;;;;5028155;28;20033;-73
2022/06/24 09:50:59;;;;;;;4.82;1.77;;;32.60;38.40;;;;;;5022749;28;20018;-72
2022/06/24 09:53:26;;;;;;;6.10;1.63;;;32.70;38.20;;;;;;5027630;28;20539;-73
2022/06/24 09:55:53;;;;;;;2.08;1.30;;;32.80;38.40;;;;;;5034269;28;20026;-72
2022/06/24 09:58:20;;;;;;;4.47;1.98;;;32.90;38.00;;;;;;5034200;28;20025;-70
2022/06/24 10:00:46;;;;;;;5.80;1.80;;;33.00;37.60;;;;;;5034103;28;20079;-73
2022/06/24 10:03:13;;;;;;;5.88;1.60;;;33.20;37.70;;;;;;5032478;28;20501;-72
2022/06/24 10:05:41;;;;;;;4.25;1.75;;;33.30;37.50;;;;;;5034410;28;20025;-70
2022/06/24 10:08:14;;;;;;;4.95;1.90;;;33.40;37.20;;;;;;5031986;28;20491;-71
2022/06/24 10:10:52;;;;;;;3.20;1.55;;;33.50;36.80;;;;;;5028031;28;20053;-73
2022/06/24 10:13:24;;;;;;;3.83;1.45;;;33.60;36.70;;;;;;5027634;28;20025;-74
2022/06/24 10:15:51;;;;;;;4.43;1.60;;;33.60;36.20;;;;;;5013688;28;20026;-69
2022/06/24 10:18:19;;;;;;;4.38;1.52;;;33.50;35.80;;;;;;5018426;28;20029;-72
2022/06/24 10:20:47;;;;;;;5.25;1.77;;;33.50;35.90;;;;;;5033986;28;20048;-67
2022/06/24 10:23:40;;;;;;;2.78;1.65;;;33.40;35.90;;;;;;5032574;28;20486;-69
2022/06/24 10:26:26;;;;;;;2.92;1.27;;;33.30;35.90;;;;;;5028729;28;20117;-70
2022/06/24 10:29:04;;;;;;;6.15;1.55;;;33.10;36.00;;;;;;5021520;28;20033;-67
2022/06/24 10:31:48;;;;;;;2.55;1.60;;;33.00;36.20;;;;;;5013358;28;20033;-69
2022/06/24 10:34:25;;;;;;;6.57;1.45;;;32.80;36.40;;;;;;5026085;28;20083;-71
2022/06/24 10:36:54;;;;;;;5.28;1.70;;;32.70;36.50;;;;;;5033540;28;20502;-68
2022/06/24 10:39:22;;;;;;;3.53;1.50;;;32.60;36.80;;;;;;5031959;28;20021;-72
2022/06/24 10:42:05;;;;;;;2.70;1.50;;;32.50;36.70;;;;;;5026473;28;20427;-69
2022/06/24 10:44:34;;;;;;;5.97;1.63;;;32.30;36.70;;;;;;5024538;28;20042;-72
2022/06/24 10:47:10;;;;;;;2.33;1.55;;;32.20;36.70;;;;;;5012316;28;20042;-70
2022/06/24 10:52:59;;;;;;;2.45;1.10;;;32.10;37.10;;;;;;5033217;28;20386;-70
2022/06/24 10:55:32;;;;;;;3.50;1.35;;;32.10;37.20;;;;;;5030994;28;20026;-72
2022/06/24 10:58:09;;;;;;;7.15;1.25;;;32.10;37.30;;;;;;5026789;28;20014;-70
2022/06/24 11:00:39;;;;;;;3.33;1.55;;;32.10;37.40;;;;;;5026664;28;20026;-72
2022/06/24 11:03:04;;;;;;;2.85;1.27;;;32.20;37.50;;;;;;5031234;28;20391;-72
2022/06/24 11:05:36;;;;;;;2.97;1.15;;;32.30;37.40;;;;;;5015857;28;20029;-69
2022/06/24 11:08:03;;;;;;;3.65;1.23;;;32.50;37.40;;;;;;5020679;28;20079;-68
2022/06/24 11:10:31;;;;;;;6.18;1.48;;;32.70;37.30;;;;;;5013335;28;20379;-72
2022/06/24 11:13:02;;;;;;;2.60;1.13;;;32.90;36.90;;;;;;5032472;28;20376;-71
2022/06/24 11:15:49;;;;;;;2.78;1.02;;;33.10;36.20;;;;;;5029342;28;20018;-68
2022/06/24 11:18:40;;;;;;;4.05;1.08;;;33.30;36.10;;;;;;5029712;28;20022;-70
2022/06/24 11:21:09;;;;;;;4.40;1.00;;;33.50;35.70;;;;;;5014152;28;20037;-68
2022/06/24 11:23:37;;;;;;;4.00;1.48;;;33.80;35.40;;;;;;5014776;28;20033;-71
2022/06/24 11:26:09;;;;;;;3.55;1.08;;;34.00;34.80;;;;;;5022501;28;20033;-72
2022/06/24 11:28:39;;;;;;;5.75;2.20;;;34.10;34.50;;;;;;5022033;28;20021;-70
2022/06/24 11:31:23;;;;;;;3.10;1.40;;;34.20;34.40;;;;;;5025079;28;20021;-69
2022/06/24 11:34:07;;;;;;;;;;;34.30;33.60;;;;;;5023281;28;20022;-71
2022/06/24 11:36:35;;;;;;;3.90;0.90;;;34.30;34.40;;;;;;5028242;28;19916;-69
2022/06/24 11:39:07;;;;;;;4.80;1.65;;;34.30;33.50;;;;;;5029436;28;20400;-73
2022/06/24 11:41:38;;;;;;;4.55;1.10;;;34.20;33.20;;;;;;5018814;28;20013;-72
2022/06/24 11:44:04;;;;;;;3.33;1.20;;;34.00;33.10;;;;;;5019446;28;20030;-71
2022/06/24 11:46:30;;;;;;;4.18;0.90;;;33.90;33.60;;;;;;5014153;28;20156;-71
2022/06/24 11:49:07;;;;;;;7.10;1.20;;;33.90;33.60;;;;;;5012638;28;20041;-72
2022/06/24 11:51:33;;;;;;;5.38;1.50;;;33.80;33.50;;;;;;5013867;28;20492;-72
2022/06/24 11:54:05;;;;;;;4.80;1.80;;;33.90;33.50;;;;;;5026737;28;20025;-68
2022/06/24 11:56:33;;;;;;;4.13;1.10;;;33.80;33.20;;;;;;5027386;28;20021;-68
2022/06/24 11:59:00;;;;;;;5.53;1.45;;;33.70;33.30;;;;;;5030959;28;20383;-70
2022/06/24 12:01:28;;;;;;;4.30;1.17;;;33.70;33.50;;;;;;5032318;28;20028;-68
2022/06/24 12:03:59;;;;;;;3.35;1.25;;;33.70;33.70;;;;;;5026838;28;20083;-70
2022/06/24 12:06:26;;;;;;;2.67;1.10;;;33.70;33.70;;;;;;5027053;28;20053;-71
2022/06/24 12:08:52;;;;;;;2.30;1.20;;;33.70;33.60;;;;;;5032434;28;20390;-72
2022/06/24 12:11:20;;;;;;;1.83;1.10;;;33.80;33.50;;;;;;5028767;28;20108;-71
2022/06/24 12:14:02;;;;;;;3.67;1.30;;;33.90;33.30;;;;;;5029567;28;20033;-68
2022/06/24 12:16:49;;;;;;;3.22;1.35;;;34.00;33.40;;;;;;5026909;28;20088;-68
2022/06/24 12:19:15;;;;;;;2.88;1.10;;;34.10;33.40;;;;;;5024386;28;20116;-68
2022/06/24 12:21:41;;;;;;;2.15;1.08;;;34.30;32.80;;;;;;5028945;28;20025;-71
2022/06/24 12:24:21;;;;;;;3.42;1.10;;;34.30;32.60;;;;;;5030269;28;20029;-70
2022/06/24 12:26:50;;;;;;;2.05;1.08;;;34.40;32.60;;;;;;5029993;28;20029;-69
2022/06/24 12:29:30;;;;;;;1.85;0.82;;;34.50;32.20;;;;;;5031941;28;20025;-70
2022/06/24 12:31:57;;;;;;;3.22;1.20;;;34.50;32.10;;;;;;5028007;28;20356;-72
2022/06/24 12:34:26;;;;;;;3.10;1.10;;;34.50;31.90;;;;;;5030615;28;20109;-69
2022/06/24 12:37:03;;;;;;;2.17;1.10;;;34.50;32.00;;;;;;5022454;28;20025;-71
2022/06/24 12:39:32;;;;;;;4.78;1.40;;;34.50;31.80;;;;;;5022537;28;20029;-68
2022/06/24 12:41:59;;;;;;;7.80;1.25;;;34.50;32.00;;;;;;5021974;28;20029;-74
2022/06/24 12:44:45;;;;;;;4.47;1.40;;;34.60;31.90;;;;;;5029917;28;20046;-71
2022/06/24 12:52:48;;;;;;;2.83;1.40;;;34.80;31.00;;;;;;5031784;28;20040;-70
2022/06/24 12:55:16;;;;;;;4.10;1.55;;;34.80;31.00;;;;;;5034377;28;20033;-73
2022/06/24 12:57:43;;;;;;;4.00;1.75;;;34.80;31.30;;;;;;5035248;28;20027;-73
2022/06/24 13:00:12;;;;;;;5.40;2.08;;;34.70;31.60;;;;;;5034393;28;20434;-73
2022/06/24 13:02:47;;;;;;;3.53;2.03;;;34.70;31.50;;;;;;5033866;28;20032;-69
2022/06/24 13:05:14;;;;;;;7.78;2.53;;;34.60;31.80;;;;;;5031605;28;20021;-72
2022/06/24 13:07:40;;;;;;;4.32;1.85;;;34.60;31.70;;;;;;5021571;28;20021;-70
2022/06/24 13:10:08;;;;;;;3.67;1.90;;;34.60;31.90;;;;;;5033977;28;20021;-74
2022/06/24 13:12:36;;;;;;;5.00;1.80;;;34.70;32.00;;;;;;5029867;28;20468;-71